Time;durP1;ratioP1;P1;durP2;ratioP2;P2;SDS_P1;SDS_P2;PMS_P1;PMS_P2;Temp;Humidity;BMP_temperature;BMP_pressure;BME280_temperature;BME280_humidity;BME280_pressure;Samples;Min_cycle;Max_cycle;Signal;HPM_P1;HPM_P2
2022/06/02 00:00:47;;;;;;;10.85;7.82;;;8.10;91.20;;;;;;6158465;23;20036;-80
2022/06/02 00:03:45;;;;;;;11.30;8.40;;;8.10;91.20;;;;;;6159245;23;20034;-80
2022/06/02 00:06:21;;;;;;;12.57;7.85;;;8.00;91.30;;;;;;6156061;23;20026;-80
2022/06/02 00:09:09;;;;;;;11.15;7.47;;;8.00;91.20;;;;;;6157333;23;20105;-79
2022/06/02 00:12:07;;;;;;;15.13;9.07;;;7.90;91.10;;;;;;6158485;23;20464;-80
2022/06/02 00:14:51;;;;;;;14.52;9.27;;;7.90;91.40;;;;;;6158966;23;20040;-80
2022/06/02 00:17:35;;;;;;;13.27;8.88;;;7.90;91.60;;;;;;6157601;23;20041;-80
2022/06/02 00:20:10;;;;;;;13.45;9.10;;;7.80;91.60;;;;;;6158233;23;20032;-80
2022/06/02 00:23:09;;;;;;;11.20;8.45;;;7.80;91.70;;;;;;6158032;23;20025;-80
2022/06/02 00:25:52;;;;;;;14.77;9.60;;;7.70;91.50;;;;;;6124260;23;20026;-80
2022/06/02 00:28:32;;;;;;;16.63;10.90;;;7.70;92.20;;;;;;6124975;23;20516;-80
2022/06/02 00:31:30;;;;;;;15.43;10.10;;;7.70;92.30;;;;;;6101096;23;20037;-80
2022/06/02 00:34:33;;;;;;;18.88;10.75;;;7.70;92.30;;;;;;6125241;23;20122;-80
2022/06/02 00:37:15;;;;;;;18.17;11.75;;;7.70;92.30;;;;;;6125456;23;20035;-80
2022/06/02 00:39:42;;;;;;;16.88;12.02;;;7.60;92.20;;;;;;6125237;23;20033;-80
2022/06/02 00:42:31;;;;;;;21.25;12.05;;;7.70;92.60;;;;;;6125240;23;20107;-80
2022/06/02 00:44:59;;;;;;;20.08;11.77;;;7.60;92.40;;;;;;6124710;23;20111;-80
2022/06/02 00:47:45;;;;;;;18.90;11.95;;;7.60;92.40;;;;;;6124624;23;20034;-80
2022/06/02 00:50:36;;;;;;;17.80;11.50;;;7.60;92.60;;;;;;6124756;23;20026;-80
2022/06/02 00:53:09;;;;;;;17.80;11.90;;;7.50;92.50;;;;;;6124966;23;20026;-80
2022/06/02 00:58:35;;;;;;;21.60;13.27;;;7.50;92.90;;;;;;6125931;23;20245;-80
2022/06/02 01:01:18;;;;;;;22.90;13.55;;;7.50;92.90;;;;;;6125825;23;20030;-80
2022/06/02 01:03:52;;;;;;;19.02;12.38;;;7.40;93.00;;;;;;6157424;23;20092;-80
2022/06/02 01:06:40;;;;;;;18.50;12.05;;;7.40;93.20;;;;;;6158164;23;20026;-80
2022/06/02 01:09:44;;;;;;;18.90;11.88;;;7.40;93.10;;;;;;6157804;23;20037;-80
2022/06/02 01:12:32;;;;;;;18.60;12.13;;;7.40;93.10;;;;;;6157727;23;20778;-80
2022/06/02 01:15:34;;;;;;;20.13;12.70;;;7.30;92.60;;;;;;6181105;23;20029;-80
2022/06/02 01:18:44;;;;;;;19.45;13.32;;;7.30;92.90;;;;;;6158164;23;20804;-80
2022/06/02 01:21:45;;;;;;;23.13;13.57;;;7.30;93.00;;;;;;6157740;23;20744;-80
2022/06/02 01:25:01;;;;;;;19.13;12.35;;;7.30;93.10;;;;;;6156878;23;20053;-81
2022/06/02 01:27:57;;;;;;;20.40;13.52;;;7.30;93.30;;;;;;6154421;23;20030;-80
2022/06/02 01:30:56;;;;;;;25.30;14.57;;;7.20;93.10;;;;;;6155461;23;20018;-80
2022/06/02 01:33:47;;;;;;;21.45;13.00;;;7.20;93.60;;;;;;6154958;23;20661;-80
2022/06/02 01:36:33;;;;;;;15.57;11.07;;;7.20;93.00;;;;;;6155164;23;20025;-80
2022/06/02 01:39:28;;;;;;;13.68;9.93;;;7.10;92.80;;;;;;6155000;23;20036;-80
2022/06/02 01:42:32;;;;;;;20.45;11.52;;;7.10;92.70;;;;;;6129604;23;20471;-80
2022/06/02 01:45:26;;;;;;;17.85;11.18;;;7.10;93.20;;;;;;6159918;23;20747;-80
2022/06/02 01:48:30;;;;;;;16.05;10.48;;;7.10;93.10;;;;;;6157740;23;20030;-80
2022/06/02 01:51:07;;;;;;;21.63;13.07;;;7.00;92.90;;;;;;6145775;23;20026;-80
2022/06/02 01:53:51;;;;;;;21.98;12.90;;;7.00;92.90;;;;;;6155568;23;20499;-80
2022/06/02 01:56:32;;;;;;;14.90;9.77;;;6.90;93.00;;;;;;6155681;23;20038;-81
2022/06/02 01:59:36;;;;;;;15.57;10.65;;;6.90;92.80;;;;;;6155067;23;20032;-81
2022/06/02 02:02:29;;;;;;;15.85;10.32;;;6.80;92.30;;;;;;6154262;23;20029;-80
2022/06/02 02:05:22;;;;;;;16.92;10.95;;;6.80;92.90;;;;;;6157257;23;20030;-80
2022/06/02 02:08:07;;;;;;;19.02;12.45;;;6.80;93.30;;;;;;6157668;23;20033;-81
2022/06/02 02:10:55;;;;;;;20.85;13.35;;;6.80;93.50;;;;;;6157250;23;20456;-80
2022/06/02 02:13:32;;;;;;;20.98;14.02;;;6.70;93.60;;;;;;6156702;23;20033;-80
2022/06/02 02:16:27;;;;;;;22.77;15.25;;;6.70;93.90;;;;;;6158157;23;20676;-80
2022/06/02 02:19:20;;;;;;;19.98;13.50;;;6.80;94.40;;;;;;6157158;23;20034;-81
2022/06/02 02:22:15;;;;;;;20.15;12.93;;;6.80;94.10;;;;;;6157805;23;20032;-80
2022/06/02 02:25:10;;;;;;;19.38;12.20;;;6.70;93.60;;;;;;6156272;23;20032;-80
2022/06/02 02:28:04;;;;;;;18.90;11.98;;;6.70;93.70;;;;;;6129904;23;20022;-80
2022/06/02 02:30:46;;;;;;;20.65;12.90;;;6.60;93.70;;;;;;6153797;23;20040;-81
2022/06/02 02:33:40;;;;;;;19.60;13.02;;;6.60;93.80;;;;;;6154156;23;20448;-80
2022/06/02 02:36:12;;;;;;;20.40;12.48;;;6.60;93.70;;;;;;6153510;23;20026;-80
2022/06/02 02:38:59;;;;;;;21.02;12.45;;;6.60;93.70;;;;;;6153644;23;20106;-80
2022/06/02 02:42:03;;;;;;;21.23;13.40;;;6.50;93.50;;;;;;6153910;23;20034;-80
2022/06/02 02:44:40;;;;;;;20.60;13.25;;;6.50;93.80;;;;;;6153805;23;20026;-80
2022/06/02 02:47:25;;;;;;;22.55;14.18;;;6.50;93.70;;;;;;6154365;23;20032;-80
2022/06/02 02:50:01;;;;;;;23.35;14.93;;;6.50;94.30;;;;;;6153743;23;20036;-80
2022/06/02 02:52:49;;;;;;;21.55;13.13;;;6.50;94.10;;;;;;6155162;23;20034;-80
2022/06/02 02:55:21;;;;;;;23.85;15.57;;;6.50;94.10;;;;;;6154876;23;20069;-80
2022/06/02 02:58:14;;;;;;;21.63;12.83;;;6.50;94.30;;;;;;6154680;23;20060;-81
2022/06/02 03:00:46;;;;;;;17.80;11.38;;;6.40;94.30;;;;;;6152738;23;20022;-80
2022/06/02 03:03:17;;;;;;;22.90;12.67;;;6.40;94.00;;;;;;6155580;23;20064;-80
2022/06/02 03:05:50;;;;;;;19.23;12.68;;;6.40;94.10;;;;;;6156788;23;20060;-80
2022/06/02 03:08:35;;;;;;;18.88;12.05;;;6.40;94.40;;;;;;6158185;23;20037;-80
2022/06/02 03:11:30;;;;;;;16.77;11.52;;;6.40;94.30;;;;;;6158291;23;20110;-80
2022/06/02 03:14:16;;;;;;;19.83;11.35;;;6.30;93.90;;;;;;6157925;23;20097;-80
2022/06/02 03:16:42;;;;;;;18.38;11.13;;;6.30;93.70;;;;;;6158002;23;20026;-81
2022/06/02 03:19:28;;;;;;;15.07;10.30;;;6.20;93.80;;;;;;6157025;23;20802;-80
2022/06/02 03:22:06;;;;;;;21.55;12.05;;;6.20;93.50;;;;;;6158089;23;20022;-81
2022/06/02 03:24:46;;;;;;;16.88;10.73;;;6.20;93.50;;;;;;6158481;23;20034;-80
2022/06/02 03:27:27;;;;;;;17.08;10.98;;;6.10;93.20;;;;;;6159009;23;20101;-80
2022/06/02 03:29:57;;;;;;;18.92;11.30;;;6.10;93.60;;;;;;6158482;23;20754;-81
2022/06/02 03:32:57;;;;;;;15.25;10.45;;;6.10;93.90;;;;;;6157229;23;20032;-80
2022/06/02 03:35:29;;;;;;;16.38;11.00;;;6.10;93.80;;;;;;6157805;23;20141;-80
2022/06/02 03:38:04;;;;;;;17.15;10.63;;;6.10;93.80;;;;;;6158355;23;20032;-81
2022/06/02 03:40:48;;;;;;;18.67;10.95;;;6.10;93.90;;;;;;6159029;23;20026;-80
2022/06/02 03:43:30;;;;;;;;;;;6.10;93.80;;;;;;6158284;23;20026;-80
2022/06/02 03:46:13;;;;;;;18.70;12.15;;;6.10;93.60;;;;;;6158418;23;19999;-80
2022/06/02 03:48:58;;;;;;;19.50;11.50;;;6.10;93.70;;;;;;6180516;23;20030;-80
2022/06/02 03:51:34;;;;;;;20.80;13.00;;;6.10;93.70;;;;;;6157615;23;20029;-80
2022/06/02 03:54:39;;;;;;;19.00;11.90;;;6.00;93.80;;;;;;6158201;23;20097;-80
2022/06/02 03:57:19;;;;;;;18.88;12.20;;;6.00;93.80;;;;;;6158033;23;20030;-80
2022/06/02 03:59:59;;;;;;;21.05;11.02;;;6.10;94.10;;;;;;6157779;23;20032;-80
2022/06/02 04:02:36;;;;;;;17.67;10.93;;;6.00;94.10;;;;;;6158463;23;20135;-80
2022/06/02 04:05:02;;;;;;;16.33;10.40;;;6.00;94.30;;;;;;6158134;23;20479;-80
2022/06/02 04:07:48;;;;;;;16.83;10.88;;;6.10;94.30;;;;;;6158184;23;20026;-80
2022/06/02 04:10:38;;;;;;;16.52;10.30;;;6.10;94.10;;;;;;6156523;23;20049;-80
2022/06/02 04:13:39;;;;;;;13.95;9.20;;;6.10;93.90;;;;;;6158279;23;20029;-80
2022/06/02 04:16:39;;;;;;;20.92;12.07;;;6.00;93.80;;;;;;6157890;23;20822;-80
2022/06/02 04:22:15;;;;;;;26.58;14.80;;;6.10;94.60;;;;;;6158087;23;20032;-80
2022/06/02 04:25:12;;;;;;;29.30;15.90;;;6.10;94.70;;;;;;6158352;23;20030;-80
2022/06/02 04:28:02;;;;;;;26.80;16.35;;;6.20;94.80;;;;;;6157526;23;20372;-80
2022/06/02 04:30:36;;;;;;;28.95;16.58;;;6.20;95.20;;;;;;6158389;23;20030;-80
2022/06/02 04:33:17;;;;;;;27.55;15.13;;;6.30;95.40;;;;;;6157724;23;20030;-80
2022/06/02 04:36:05;;;;;;;27.05;15.45;;;6.30;95.50;;;;;;6157633;23;20029;-80
2022/06/02 04:38:38;;;;;;;37.00;18.00;;;6.40;95.50;;;;;;6158197;23;20026;-80
2022/06/02 04:41:22;;;;;;;31.63;17.15;;;6.50;95.80;;;;;;6158336;23;20101;-80
2022/06/02 04:44:17;;;;;;;32.28;16.63;;;6.50;95.90;;;;;;6158153;23;20464;-80
2022/06/02 04:46:55;;;;;;;32.60;17.40;;;6.60;95.90;;;;;;6158090;23;20187;-80
2022/06/02 04:49:45;;;;;;;31.80;17.75;;;6.60;96.00;;;;;;6156035;23;20803;-80
2022/06/02 04:52:36;;;;;;;35.35;18.38;;;6.70;96.10;;;;;;6158247;23;20030;-81
2022/06/02 04:55:12;;;;;;;33.17;17.98;;;6.80;96.30;;;;;;6153498;23;20438;-80
2022/06/02 04:58:03;;;;;;;36.35;17.40;;;6.90;96.50;;;;;;6156958;23;20030;-80
2022/06/02 05:01:07;;;;;;;35.83;18.20;;;7.00;96.60;;;;;;6156659;23;20036;-80
2022/06/02 05:04:17;;;;;;;38.33;20.75;;;7.00;96.70;;;;;;6157522;23;20030;-81
2022/06/02 05:07:00;;;;;;;37.03;19.83;;;7.10;96.80;;;;;;6152752;23;20031;-80
2022/06/02 05:09:35;;;;;;;38.67;19.63;;;7.20;97.00;;;;;;6155198;23;20025;-80
2022/06/02 05:12:58;;;;;;;37.28;19.92;;;7.30;97.00;;;;;;6153960;23;20108;-80
2022/06/02 05:15:56;;;;;;;44.45;20.27;;;7.40;97.10;;;;;;6094969;23;20030;-80
2022/06/02 05:18:56;;;;;;;43.92;21.88;;;7.50;97.20;;;;;;6095442;23;20037;-81
2022/06/02 05:21:37;;;;;;;46.50;22.77;;;7.60;97.30;;;;;;6094327;23;20027;-80
2022/06/02 05:24:10;;;;;;;47.85;23.38;;;7.70;97.30;;;;;;6093874;23;20110;-80
2022/06/02 05:26:36;;;;;;;60.13;28.27;;;7.80;97.50;;;;;;6095492;23;20049;-80
2022/06/02 05:29:15;;;;;;;68.70;29.77;;;7.90;97.70;;;;;;6094192;23;20027;-80
2022/06/02 05:32:12;;;;;;;65.03;29.95;;;8.20;98.30;;;;;;6097574;23;20061;-80
2022/06/02 05:35:21;;;;;;;60.90;29.38;;;8.30;98.40;;;;;;6097572;23;20027;-80
2022/06/02 05:38:02;;;;;;;63.47;30.65;;;8.50;98.60;;;;;;6097089;23;20034;-80
2022/06/02 05:40:57;;;;;;;62.50;30.35;;;8.70;98.60;;;;;;6093524;23;20027;-80
2022/06/02 05:43:47;;;;;;;56.75;27.35;;;8.90;98.70;;;;;;6103135;23;20022;-80
2022/06/02 05:46:41;;;;;;;50.58;26.38;;;9.00;98.50;;;;;;6144381;23;20486;-80
2022/06/02 05:49:16;;;;;;;53.20;26.80;;;9.10;98.30;;;;;;6158630;23;20030;-80
2022/06/02 05:52:08;;;;;;;40.97;23.65;;;9.30;98.30;;;;;;6156858;23;20770;-80
2022/06/02 05:55:26;;;;;;;33.80;19.67;;;9.40;98.20;;;;;;6157884;23;20026;-80
2022/06/02 05:58:19;;;;;;;34.13;19.38;;;9.70;97.30;;;;;;6155908;23;20022;-81
2022/06/02 06:01:04;;;;;;;25.73;16.48;;;9.80;96.50;;;;;;6156881;23;20034;-80
2022/06/02 06:03:40;;;;;;;22.40;14.27;;;9.90;95.80;;;;;;6157201;23;20022;-81
2022/06/02 06:06:44;;;;;;;21.50;14.68;;;10.10;94.70;;;;;;6157940;23;20025;-80
2022/06/02 06:09:30;;;;;;;17.85;13.05;;;10.20;93.80;;;;;;6157893;23;20063;-80
2022/06/02 06:12:34;;;;;;;19.20;13.50;;;10.40;93.00;;;;;;6157899;23;20026;-80
2022/06/02 06:15:11;;;;;;;21.77;12.35;;;10.50;92.90;;;;;;6155725;23;20456;-80
2022/06/02 06:18:10;;;;;;;18.60;12.10;;;10.60;92.40;;;;;;6181325;23;20447;-81
2022/06/02 06:20:51;;;;;;;23.20;12.52;;;10.70;91.60;;;;;;6155588;23;20036;-80
2022/06/02 06:23:41;;;;;;;17.00;9.15;;;10.80;91.60;;;;;;6157240;23;20113;-80
2022/06/02 06:26:26;;;;;;;13.07;9.18;;;10.90;91.00;;;;;;6156165;23;20097;-81
2022/06/02 06:29:11;;;;;;;13.10;8.07;;;11.00;89.50;;;;;;6157913;23;20026;-80
2022/06/02 06:31:57;;;;;;;14.00;9.00;;;11.10;88.80;;;;;;6157839;23;20100;-81
2022/06/02 06:34:39;;;;;;;11.88;7.43;;;11.20;88.50;;;;;;6157831;23;20468;-80
2022/06/02 06:37:16;;;;;;;11.52;6.78;;;11.30;87.50;;;;;;6158035;23;20043;-80
2022/06/02 06:40:11;;;;;;;8.05;5.25;;;11.50;86.50;;;;;;6181020;23;20471;-80
2022/06/02 06:42:43;;;;;;;12.95;6.25;;;11.60;84.30;;;;;;6157758;23;20368;-80
2022/06/02 06:45:22;;;;;;;8.37;5.30;;;11.80;84.10;;;;;;6156620;23;20025;-81
2022/06/02 06:47:58;;;;;;;9.75;5.47;;;11.90;83.00;;;;;;6155528;23;20123;-81
2022/06/02 06:50:46;;;;;;;7.93;5.47;;;12.00;81.90;;;;;;6158178;23;20063;-80
2022/06/02 06:53:22;;;;;;;7.30;5.18;;;12.20;83.00;;;;;;6155780;23;20030;-80
2022/06/02 06:56:04;;;;;;;7.05;5.00;;;12.30;82.70;;;;;;6158336;23;20034;-80
2022/06/02 06:59:12;;;;;;;9.02;5.63;;;12.50;80.00;;;;;;6157789;23;20073;-81
2022/06/02 07:02:17;;;;;;;11.23;5.78;;;12.70;78.80;;;;;;6155481;23;20032;-81
2022/06/02 07:05:01;;;;;;;9.43;5.75;;;12.90;79.10;;;;;;6157481;23;20464;-80
2022/06/02 07:08:17;;;;;;;9.95;5.00;;;13.10;78.70;;;;;;6157569;23;20795;-81
2022/06/02 07:11:07;;;;;;;7.35;4.95;;;13.20;77.30;;;;;;6144690;23;20042;-80
2022/06/02 07:13:46;;;;;;;8.25;5.00;;;13.30;76.70;;;;;;6156973;23;20030;-81
2022/06/02 07:16:29;;;;;;;5.57;4.70;;;13.50;76.70;;;;;;6156239;23;20446;-80
2022/06/02 07:19:10;;;;;;;8.52;4.28;;;13.50;75.40;;;;;;6157444;23;20025;-80
2022/06/02 07:21:54;;;;;;;10.55;4.10;;;13.60;74.10;;;;;;6155392;23;20022;-81
2022/06/02 07:24:48;;;;;;;7.07;3.67;;;13.60;73.20;;;;;;6157034;23;20495;-81
2022/06/02 07:27:27;;;;;;;7.05;3.75;;;13.60;73.00;;;;;;6157534;23;20026;-81
2022/06/02 07:30:02;;;;;;;8.68;3.80;;;14.00;71.30;;;;;;6156887;23;20542;-81
2022/06/02 07:32:53;;;;;;;9.18;3.17;;;14.70;71.40;;;;;;6157484;23;20034;-80
2022/06/02 07:35:38;;;;;;;4.50;3.00;;;15.40;70.10;;;;;;6156233;23;20452;-81
2022/06/02 07:38:38;;;;;;;5.07;3.28;;;15.70;66.80;;;;;;6155826;23;20030;-81
2022/06/02 07:41:22;;;;;;;4.63;3.13;;;16.00;64.50;;;;;;6158323;23;20467;-82
2022/06/02 07:44:33;;;;;;;6.30;3.45;;;15.90;65.40;;;;;;6155947;23;20050;-81
2022/06/02 07:47:05;;;;;;;5.47;2.70;;;15.60;66.60;;;;;;6158473;23;20073;-82
2022/06/02 07:49:47;;;;;;;7.20;3.67;;;15.40;66.80;;;;;;6158053;23;20085;-82
2022/06/02 07:52:23;;;;;;;5.13;3.22;;;15.30;67.60;;;;;;6158999;23;20018;-81
2022/06/02 07:54:58;;;;;;;7.45;3.55;;;15.10;66.40;;;;;;6158525;23;20026;-81
2022/06/02 07:57:43;;;;;;;6.53;3.10;;;15.00;66.10;;;;;;6158223;23;20029;-81
2022/06/02 08:00:18;;;;;;;6.13;3.33;;;15.30;67.60;;;;;;6156886;23;20026;-81
2022/06/02 08:03:26;;;;;;;5.28;3.35;;;15.30;67.30;;;;;;6158665;23;20029;-81
2022/06/02 08:06:14;;;;;;;6.40;2.95;;;15.40;68.10;;;;;;6158436;23;20468;-81
2022/06/02 08:09:31;;;;;;;5.10;2.70;;;15.90;66.50;;;;;;6156795;23;20024;-81
2022/06/02 08:12:39;;;;;;;7.15;2.65;;;16.60;64.00;;;;;;6157854;23;20032;-79
2022/06/02 08:15:26;;;;;;;4.30;2.35;;;17.10;62.20;;;;;;6153070;23;20030;-81
2022/06/02 08:18:04;;;;;;;3.83;2.50;;;17.20;61.80;;;;;;6157888;23;20046;-81
2022/06/02 08:20:53;;;;;;;5.05;2.40;;;17.40;60.20;;;;;;6158541;23;20070;-81
2022/06/02 08:23:44;;;;;;;6.15;2.30;;;17.90;58.40;;;;;;6156677;23;20813;-79
2022/06/02 08:26:18;;;;;;;5.93;3.05;;;18.00;59.00;;;;;;6158609;23;20093;-79
2022/06/02 08:29:18;;;;;;;6.05;3.08;;;17.80;56.50;;;;;;6158443;23;20101;-81
2022/06/02 08:32:05;;;;;;;5.55;2.78;;;17.40;57.60;;;;;;6158678;23;20020;-81
2022/06/02 08:35:06;;;;;;;5.10;2.20;;;17.20;58.20;;;;;;6181607;23;20018;-81
2022/06/02 08:38:10;;;;;;;6.03;2.80;;;17.10;56.60;;;;;;6153695;23;20029;-81
2022/06/02 08:41:28;;;;;;;6.60;2.67;;;16.80;57.90;;;;;;6164668;23;20025;-81
2022/06/02 08:44:24;;;;;;;6.72;2.55;;;16.60;59.00;;;;;;6159697;23;20052;-81
2022/06/02 08:47:24;;;;;;;4.07;2.15;;;16.30;60.60;;;;;;6157627;23;20030;-81
2022/06/02 08:50:13;;;;;;;9.50;2.05;;;16.10;63.10;;;;;;6158393;23;20032;-81
2022/06/02 08:53:15;;;;;;;4.80;1.92;;;15.90;65.40;;;;;;6158930;23;20030;-81
2022/06/02 08:55:49;;;;;;;3.92;2.28;;;15.70;67.20;;;;;;6158449;23;20798;-81
2022/06/02 08:58:59;;;;;;;4.88;2.15;;;15.60;65.30;;;;;;6158279;23;20402;-81
2022/06/02 09:01:44;;;;;;;3.85;1.70;;;15.90;66.60;;;;;;6158187;23;20026;-82
2022/06/02 09:04:43;;;;;;;3.75;1.73;;;16.60;60.70;;;;;;6181322;23;20037;-81
2022/06/02 09:07:15;;;;;;;4.75;2.00;;;17.40;58.50;;;;;;6156273;23;20031;-81
2022/06/02 09:10:21;;;;;;;3.63;1.80;;;18.50;54.00;;;;;;6157231;23;20028;-81
2022/06/02 09:13:38;;;;;;;4.40;1.80;;;19.10;54.30;;;;;;6158185;23;20041;-81
2022/06/02 09:16:54;;;;;;;3.83;1.42;;;19.70;49.10;;;;;;6180396;23;20406;-81
2022/06/02 09:19:32;;;;;;;3.60;1.60;;;20.40;47.00;;;;;;6149037;23;20046;-82
2022/06/02 09:22:08;;;;;;;5.30;1.55;;;20.80;46.50;;;;;;6156306;23;20593;-82
2022/06/02 09:25:08;;;;;;;4.07;1.50;;;21.20;45.40;;;;;;6158340;23;20030;-82
2022/06/02 09:27:57;;;;;;;3.58;1.45;;;22.00;44.00;;;;;;6158182;23;20056;-82
2022/06/02 09:30:40;;;;;;;5.95;1.70;;;22.40;45.70;;;;;;6156653;23;20025;-82
2022/06/02 09:33:37;;;;;;;4.22;1.80;;;22.10;46.20;;;;;;6156412;23;20030;-82
2022/06/02 09:36:08;;;;;;;2.53;1.40;;;22.00;45.20;;;;;;6157886;23;20022;-82
2022/06/02 09:39:13;;;;;;;3.00;1.50;;;21.80;45.30;;;;;;6157829;23;20424;-82
2022/06/02 09:42:09;;;;;;;3.28;1.40;;;20.90;45.70;;;;;;6157520;23;20102;-81
2022/06/02 09:45:00;;;;;;;3.90;1.65;;;20.30;45.70;;;;;;6125515;23;20876;-81
2022/06/02 09:48:00;;;;;;;5.13;1.80;;;19.90;48.20;;;;;;6125148;23;20035;-81
2022/06/02 09:50:36;;;;;;;3.50;1.70;;;19.60;50.20;;;;;;6125537;23;20536;-81
2022/06/02 09:53:17;;;;;;;4.95;1.60;;;19.50;49.00;;;;;;6125565;23;20185;-81
2022/06/02 09:56:05;;;;;;;4.07;1.65;;;19.40;49.50;;;;;;6125553;23;20029;-81
2022/06/02 09:59:07;;;;;;;3.83;1.40;;;19.40;47.30;;;;;;6100766;23;20034;-81
2022/06/02 10:02:10;;;;;;;2.90;1.40;;;19.10;48.10;;;;;;6124631;23;20048;-81
2022/06/02 10:04:55;;;;;;;;;;;19.10;49.40;;;;;;6125476;23;20712;-81
2022/06/02 10:07:49;;;;;;;3.28;1.70;;;19.00;49.40;;;;;;6124785;23;19928;-81
2022/06/02 10:10:48;;;;;;;2.90;1.67;;;18.70;48.00;;;;;;6124951;23;20134;-81
2022/06/02 10:13:39;;;;;;;3.80;1.85;;;18.20;49.80;;;;;;6102487;23;20101;-81
2022/06/02 10:16:15;;;;;;;4.53;1.95;;;18.20;52.30;;;;;;6125292;23;20051;-81
2022/06/02 10:18:53;;;;;;;3.88;1.90;;;18.30;52.70;;;;;;6124475;23;20523;-81
2022/06/02 10:21:52;;;;;;;5.72;1.92;;;18.50;52.40;;;;;;6155985;23;20030;-81
2022/06/02 10:24:42;;;;;;;7.82;1.90;;;18.80;54.30;;;;;;6157949;23;20025;-81
2022/06/02 10:27:40;;;;;;;5.38;2.38;;;19.10;50.70;;;;;;6157785;23;20014;-81
2022/06/02 10:30:31;;;;;;;4.68;2.42;;;19.40;50.20;;;;;;6156565;23;20026;-81
2022/06/02 10:33:35;;;;;;;5.28;2.20;;;19.50;49.90;;;;;;6156096;23;20105;-81
2022/06/02 10:36:39;;;;;;;3.05;1.23;;;19.60;51.90;;;;;;6157475;23;20033;-81
2022/06/02 10:39:21;;;;;;;3.25;1.55;;;20.00;47.80;;;;;;6157815;23;20018;-81
2022/06/02 10:42:17;;;;;;;4.03;1.60;;;20.60;44.90;;;;;;6158079;23;20026;-81
2022/06/02 10:45:11;;;;;;;6.25;1.70;;;21.30;44.90;;;;;;6157513;23;20030;-81
2022/06/02 10:48:15;;;;;;;3.85;1.55;;;21.30;44.70;;;;;;6157249;23;20053;-81
2022/06/02 10:51:18;;;;;;;5.82;1.70;;;21.40;47.90;;;;;;6156648;23;20022;-81
2022/06/02 10:54:26;;;;;;;3.85;1.85;;;22.00;45.10;;;;;;6158029;23;20601;-81
2022/06/02 10:57:15;;;;;;;3.95;1.52;;;22.30;41.60;;;;;;6157581;23;20045;-81
2022/06/02 11:00:17;;;;;;;5.38;1.70;;;23.20;42.30;;;;;;6156134;23;20030;-81
2022/06/02 11:03:11;;;;;;;3.67;1.80;;;23.60;41.40;;;;;;6157948;23;20416;-81
2022/06/02 11:05:59;;;;;;;3.83;1.60;;;23.90;38.10;;;;;;6156589;23;20029;-81
2022/06/02 11:08:34;;;;;;;4.25;1.30;;;23.00;39.90;;;;;;6157391;23;20700;-81
2022/06/02 11:11:29;;;;;;;3.95;1.58;;;22.10;41.10;;;;;;6157840;23;20232;-81
2022/06/02 11:14:14;;;;;;;3.00;1.50;;;21.20;41.80;;;;;;6156518;23;20033;-81
2022/06/02 11:17:13;;;;;;;3.00;1.40;;;20.80;43.00;;;;;;6159022;23;20033;-81
2022/06/02 11:20:18;;;;;;;3.33;1.50;;;20.70;44.10;;;;;;6155940;23;20035;-81
2022/06/02 11:22:52;;;;;;;3.67;1.67;;;21.20;42.40;;;;;;6158187;23;20018;-81
2022/06/02 11:26:15;;;;;;;4.57;1.40;;;20.90;41.20;;;;;;6157204;23;20033;-81
2022/06/02 11:28:57;;;;;;;2.63;1.50;;;21.20;42.40;;;;;;6158797;23;20024;-81
2022/06/02 11:32:09;;;;;;;3.70;1.73;;;21.40;42.90;;;;;;6158861;23;20542;-81
2022/06/02 11:35:27;;;;;;;4.35;1.77;;;22.00;42.30;;;;;;6148840;23;20050;-82
2022/06/02 11:38:18;;;;;;;5.53;1.50;;;23.00;42.70;;;;;;6125693;23;20437;-81
2022/06/02 11:41:18;;;;;;;5.35;2.30;;;23.50;39.20;;;;;;6126100;23;20081;-82
2022/06/02 11:44:24;;;;;;;4.63;1.70;;;24.50;38.50;;;;;;6126130;23;20031;-81
2022/06/02 11:47:12;;;;;;;3.72;1.73;;;24.90;37.50;;;;;;6125895;23;20019;-81
2022/06/02 11:49:57;;;;;;;3.67;2.20;;;25.40;37.00;;;;;;6100889;23;20026;-81
2022/06/02 11:52:43;;;;;;;5.60;2.08;;;25.80;36.90;;;;;;6125633;23;20030;-82
2022/06/02 11:55:31;;;;;;;4.03;1.92;;;25.00;34.90;;;;;;6125193;23;20117;-81
2022/06/02 11:58:30;;;;;;;4.70;2.00;;;24.50;37.40;;;;;;6124825;23;20019;-81
2022/06/02 12:01:32;;;;;;;4.35;2.00;;;24.80;36.40;;;;;;6125998;23;20078;-81
2022/06/02 12:04:20;;;;;;;6.93;2.10;;;25.30;36.00;;;;;;6101312;23;20495;-82
2022/06/02 12:07:28;;;;;;;2.90;1.90;;;25.20;34.40;;;;;;6125694;23;20032;-81
2022/06/02 12:10:16;;;;;;;3.10;1.90;;;24.30;37.30;;;;;;6126113;23;20026;-81
2022/06/02 12:12:57;;;;;;;5.30;1.80;;;24.10;38.70;;;;;;6126153;23;20054;-81
2022/06/02 12:15:49;;;;;;;2.78;1.73;;;24.00;38.30;;;;;;6154388;23;20464;-81
2022/06/02 12:18:35;;;;;;;3.30;2.00;;;24.30;37.60;;;;;;6158074;23;20034;-81
2022/06/02 12:21:30;;;;;;;6.18;2.10;;;24.90;37.20;;;;;;6156828;23;20057;-81
2022/06/02 12:24:17;;;;;;;3.50;2.15;;;24.70;37.30;;;;;;6156104;23;20050;-82
2022/06/02 12:27:02;;;;;;;5.75;2.03;;;24.50;37.60;;;;;;6158198;23;20050;-82
2022/06/02 12:29:56;;;;;;;6.47;2.67;;;24.60;36.40;;;;;;6157889;23;20041;-81
2022/06/02 12:32:45;;;;;;;3.17;2.10;;;24.60;35.50;;;;;;6156945;23;20763;-81
2022/06/02 12:35:41;;;;;;;3.53;1.92;;;24.20;36.40;;;;;;6158138;23;20807;-81
2022/06/02 12:38:32;;;;;;;2.30;1.70;;;24.40;36.20;;;;;;6159057;23;20030;-81
2022/06/02 12:41:05;;;;;;;4.05;2.33;;;24.50;37.70;;;;;;6158701;23;20824;-80
2022/06/02 12:43:53;;;;;;;4.47;2.60;;;24.80;36.50;;;;;;6158017;23;20014;-81
2022/06/02 12:46:46;;;;;;;5.28;2.30;;;24.60;34.30;;;;;;6158054;23;20416;-81
2022/06/02 12:49:37;;;;;;;4.13;1.90;;;24.20;38.50;;;;;;6156835;23;20114;-81
2022/06/02 12:52:32;;;;;;;4.40;1.90;;;24.60;36.80;;;;;;6140287;23;20064;-81
2022/06/02 12:55:19;;;;;;;5.20;1.70;;;24.70;35.60;;;;;;6158117;23;20777;-81
2022/06/02 12:58:24;;;;;;;6.00;2.05;;;24.80;35.30;;;;;;6156708;23;20406;-81
2022/06/02 13:01:22;;;;;;;2.70;2.00;;;24.60;36.30;;;;;;6157303;23;20153;-81
2022/06/02 13:04:26;;;;;;;3.58;1.95;;;24.50;36.80;;;;;;6158223;23;20109;-81
2022/06/02 13:07:21;;;;;;;4.35;1.77;;;24.40;35.60;;;;;;6157944;23;20112;-81
2022/06/02 13:10:08;;;;;;;3.05;1.60;;;25.00;37.70;;;;;;6158060;23;20037;-81
2022/06/02 13:13:12;;;;;;;2.03;1.80;;;25.30;34.60;;;;;;6158752;23;20022;-81
2022/06/02 13:16:10;;;;;;;3.20;1.75;;;25.00;33.70;;;;;;6157851;23;20085;-81
2022/06/02 13:19:11;;;;;;;8.05;2.00;;;25.00;35.30;;;;;;6158225;23;20085;-81
2022/06/02 13:22:15;;;;;;;3.80;1.90;;;25.60;32.60;;;;;;6157573;23;20032;-81
2022/06/02 13:24:45;;;;;;;5.47;2.00;;;26.00;33.50;;;;;;6158259;23;20057;-81
2022/06/02 13:27:39;;;;;;;4.68;1.73;;;25.70;33.60;;;;;;6157927;23;20068;-81
2022/06/02 13:30:28;;;;;;;4.07;1.77;;;25.50;34.90;;;;;;6157692;23;20026;-81
2022/06/02 13:33:33;;;;;;;4.10;1.77;;;26.10;33.30;;;;;;6158122;23;20072;-81
2022/06/02 13:36:20;;;;;;;3.97;2.20;;;26.50;32.10;;;;;;6156850;23;20029;-82
2022/06/02 13:39:04;;;;;;;4.32;1.63;;;26.30;32.10;;;;;;6158365;23;20034;-82
2022/06/02 13:41:51;;;;;;;3.40;1.83;;;25.90;34.50;;;;;;6181353;23;20030;-82
2022/06/02 13:44:48;;;;;;;7.05;2.13;;;25.90;32.20;;;;;;6158055;23;20061;-82
2022/06/02 13:47:24;;;;;;;2.95;1.55;;;26.20;33.60;;;;;;6158161;23;20459;-82
2022/06/02 13:50:27;;;;;;;4.35;1.98;;;26.00;31.70;;;;;;6156737;23;20022;-82
2022/06/02 13:53:15;;;;;;;3.10;1.50;;;26.70;31.10;;;;;;6146802;23;20162;-82
2022/06/02 13:59:22;;;;;;;4.33;1.40;;;25.60;32.90;;;;;;6157505;23;20024;-82
2022/06/02 14:02:04;;;;;;;6.95;2.00;;;26.30;33.20;;;;;;6158288;23;20034;-82
2022/06/02 14:04:46;;;;;;;4.60;1.60;;;26.10;31.30;;;;;;6156342;23;20029;-82
2022/06/02 14:07:42;;;;;;;2.75;1.50;;;26.70;33.90;;;;;;6157296;23;20021;-82
2022/06/02 14:10:24;;;;;;;5.03;1.73;;;27.20;30.00;;;;;;6158140;23;20026;-82
2022/06/02 14:13:05;;;;;;;1.87;1.33;;;27.20;29.90;;;;;;6158009;23;20113;-82
2022/06/02 14:15:59;;;;;;;5.03;1.50;;;27.10;30.70;;;;;;6158016;23;20033;-82
2022/06/02 14:18:51;;;;;;;3.63;1.73;;;26.80;30.80;;;;;;6158168;23;20348;-82
2022/06/02 14:21:39;;;;;;;2.97;1.50;;;26.30;30.10;;;;;;6157566;23;20077;-82
2022/06/02 14:24:11;;;;;;;2.95;1.70;;;26.30;30.00;;;;;;6157283;23;20030;-81
2022/06/02 14:27:17;;;;;;;3.87;1.60;;;26.70;30.60;;;;;;6180524;23;20026;-82
2022/06/02 14:29:52;;;;;;;4.90;1.60;;;27.30;29.30;;;;;;6158013;23;20474;-81
2022/06/02 14:32:38;;;;;;;7.13;2.10;;;26.60;30.10;;;;;;6157965;23;20029;-82
2022/06/02 14:35:32;;;;;;;4.28;1.83;;;26.50;29.90;;;;;;6158020;23;20404;-82
2022/06/02 14:38:32;;;;;;;3.95;1.75;;;26.20;30.20;;;;;;6155122;23;20018;-82
2022/06/02 14:41:18;;;;;;;2.38;1.63;;;26.40;30.90;;;;;;6157554;23;20383;-82
2022/06/02 14:43:48;;;;;;;5.65;1.52;;;26.70;29.70;;;;;;6158115;23;20116;-82
2022/06/02 14:46:52;;;;;;;3.45;2.00;;;26.30;31.80;;;;;;6157286;23;20077;-82